createdAt,value
2023-02-19T00:01:47.955Z,99967.81
2023-02-19T00:04:21.822Z,99968.20
2023-02-19T00:06:49.918Z,99969.13
2023-02-19T00:09:18.588Z,99970.58
2023-02-19T00:11:47.792Z,99965.89
2023-02-19T00:14:19.776Z,99970.80
2023-02-19T00:16:47.828Z,99968.21
2023-02-19T00:19:18.348Z,99964.63
2023-02-19T00:21:46.614Z,99951.73
2023-02-19T00:24:14.817Z,99954.77
2023-02-19T00:26:43.338Z,99951.11
2023-02-19T00:29:16.494Z,99952.89
2023-02-19T00:31:45.131Z,99950.56
2023-02-19T00:34:13.529Z,99951.18
2023-02-19T00:36:42.439Z,99948.08
2023-02-19T00:39:14.021Z,99945.09
2023-02-19T00:41:41.699Z,99948.58
2023-02-19T00:44:11.105Z,99941.50
2023-02-19T00:46:41.601Z,99945.59
2023-02-19T00:49:15.207Z,99939.84
2023-02-19T00:51:43.093Z,99945.19
2023-02-19T00:54:11.734Z,99942.69
2023-02-19T00:56:39.425Z,99935.69
2023-02-19T00:59:07.169Z,99934.58
2023-02-19T01:01:34.978Z,99934.95
2023-02-19T01:04:04.825Z,99935.00
2023-02-19T01:06:34.728Z,99932.36
2023-02-19T01:09:04.506Z,99933.02
2023-02-19T01:11:32.187Z,99932.29
2023-02-19T01:14:01.318Z,99930.36
2023-02-19T01:16:29.139Z,99926.54
2023-02-19T01:18:57.777Z,99919.70
2023-02-19T01:21:26.925Z,99915.73
2023-02-19T01:23:55.216Z,99918.70
2023-02-19T01:26:26.187Z,99916.80
2023-02-19T01:28:54.003Z,99914.75
2023-02-19T01:31:24.094Z,99912.77
2023-02-19T01:33:55.128Z,99908.55
2023-02-19T01:36:23.156Z,99906.11
2023-02-19T01:38:50.870Z,99904.84
2023-02-19T01:41:22.238Z,99903.23
2023-02-19T01:43:57.290Z,99902.88
2023-02-19T01:46:29.722Z,99897.02
2023-02-19T01:48:59.588Z,99890.38
2023-02-19T01:51:28.247Z,99881.16
2023-02-19T01:53:57.812Z,99883.34
2023-02-19T01:56:27.212Z,99877.54
2023-02-19T01:58:55.364Z,99876.94
2023-02-19T02:01:23.078Z,99864.02
2023-02-19T02:03:52.135Z,99854.93
2023-02-19T02:06:25.390Z,99850.17
2023-02-19T02:09:13.846Z,99846.81
2023-02-19T02:11:48.682Z,99844.42
2023-02-19T02:14:22.939Z,99838.31
2023-02-19T02:17:09.871Z,99838.91
2023-02-19T02:19:55.829Z,99833.16
2023-02-19T02:22:35.309Z,99830.17
2023-02-19T02:25:22.160Z,99827.25
2023-02-19T02:28:14.116Z,99822.38
2023-02-19T02:30:44.942Z,99816.53
2023-02-19T02:33:21.507Z,99813.38
2023-02-19T02:36:27.839Z,99813.67
2023-02-19T02:38:56.925Z,99810.62
2023-02-19T02:41:25.216Z,99816.30
2023-02-19T02:43:52.878Z,99819.19
2023-02-19T02:46:28.652Z,99818.02
2023-02-19T02:49:00.052Z,99813.39
2023-02-19T02:51:31.186Z,99810.02
2023-02-19T02:54:27.489Z,99808.48
2023-02-19T02:56:56.244Z,99810.77
2023-02-19T02:59:26.565Z,99803.64
2023-02-19T03:02:22.738Z,99797.79
2023-02-19T03:05:38.329Z,99797.46
2023-02-19T03:08:23.135Z,99795.02
2023-02-19T03:11:22.522Z,99794.30
2023-02-19T03:14:16.395Z,99800.38
2023-02-19T03:17:04.532Z,99789.39
2023-02-19T03:19:38.279Z,99783.83
2023-02-19T03:22:11.644Z,99778.80
2023-02-19T03:25:04.591Z,99770.95
2023-02-19T03:27:33.843Z,99764.94
2023-02-19T03:30:05.581Z,99767.77
2023-02-19T03:32:37.477Z,99771.52
2023-02-19T03:35:22.952Z,99770.34
2023-02-19T03:38:04.512Z,99769.23
2023-02-19T03:40:40.645Z,99772.31
2023-02-19T03:43:32.588Z,99778.79
2023-02-19T03:46:12.514Z,99778.13
2023-02-19T03:48:52.371Z,99782.27
2023-02-19T03:51:26.189Z,99779.96
2023-02-19T03:54:16.453Z,99777.09
2023-02-19T03:56:56.413Z,99783.95
2023-02-19T03:59:48.832Z,99782.61
2023-02-19T04:02:27.451Z,99778.14
2023-02-19T04:05:02.290Z,99776.60
2023-02-19T04:07:36.159Z,99774.88
2023-02-19T04:10:04.692Z,99766.27
2023-02-19T04:12:33.840Z,99769.48
2023-02-19T04:15:10.558Z,99763.17
2023-02-19T04:17:42.686Z,99763.34
2023-02-19T04:20:11.393Z,99762.95
2023-02-19T04:22:39.380Z,99759.86
2023-02-19T04:25:07.870Z,99759.59
2023-02-19T04:27:39.385Z,99758.53
2023-02-19T04:30:09.271Z,99758.15
2023-02-19T04:32:37.142Z,99761.29
2023-02-19T04:35:05.070Z,99760.95
2023-02-19T04:37:32.809Z,99751.69
2023-02-19T04:40:00.488Z,99755.39
2023-02-19T04:42:28.136Z,99752.13
2023-02-19T04:44:55.830Z,99747.39
2023-02-19T04:47:23.689Z,99747.48
2023-02-19T04:49:51.398Z,99750.58
2023-02-19T04:52:19.113Z,99747.75
2023-02-19T04:54:46.887Z,99746.33
2023-02-19T04:57:14.598Z,99745.48
2023-02-19T04:59:42.319Z,99746.20
2023-02-19T05:02:09.992Z,99745.16
2023-02-19T05:04:37.633Z,99741.39
2023-02-19T05:07:05.356Z,99740.45
2023-02-19T05:09:33.021Z,99742.85
2023-02-19T05:12:00.669Z,99738.67
2023-02-19T05:14:28.373Z,99741.21
2023-02-19T05:16:56.153Z,99748.03
2023-02-19T05:19:24.008Z,99744.27
2023-02-19T05:21:51.638Z,99736.21
2023-02-19T05:24:19.320Z,99738.19
2023-02-19T05:26:48.337Z,99737.42
2023-02-19T05:29:16.175Z,99732.33
2023-02-19T05:31:43.929Z,99732.73
2023-02-19T05:34:11.649Z,99729.75
2023-02-19T05:36:39.418Z,99726.86
2023-02-19T05:39:08.470Z,99730.63
2023-02-19T05:41:36.225Z,99733.48
2023-02-19T05:44:03.880Z,99734.08
2023-02-19T05:46:32.000Z,99740.46
2023-02-19T05:48:59.762Z,99732.45
2023-02-19T05:51:27.607Z,99730.66
2023-02-19T05:53:56.630Z,99732.35
2023-02-19T05:56:38.818Z,99730.05
2023-02-19T05:59:14.037Z,99729.67
2023-02-19T06:01:41.699Z,99733.52
2023-02-19T06:04:10.907Z,99737.50
2023-02-19T06:06:39.265Z,99732.54
2023-02-19T06:09:07.718Z,99743.23
2023-02-19T06:11:35.797Z,99740.65
2023-02-19T06:14:04.172Z,99745.38
2023-02-19T06:16:33.744Z,99748.42
2023-02-19T06:19:04.874Z,99752.41
2023-02-19T06:21:32.574Z,99755.66
2023-02-19T06:24:05.629Z,99752.52
2023-02-19T06:26:33.281Z,99759.09
2023-02-19T06:29:01.010Z,99752.79
2023-02-19T06:31:29.059Z,99753.02
2023-02-19T06:33:56.888Z,99763.29
2023-02-19T06:36:24.836Z,99769.80
2023-02-19T06:38:52.576Z,99770.68
2023-02-19T06:41:20.364Z,99770.23
2023-02-19T06:43:48.084Z,99767.08
2023-02-19T06:46:15.872Z,99763.48
2023-02-19T06:48:45.125Z,99766.39
2023-02-19T06:51:14.975Z,99774.99
2023-02-19T06:53:42.677Z,99780.10
2023-02-19T06:56:28.306Z,99788.05
2023-02-19T06:58:59.569Z,99795.40
2023-02-19T07:01:28.842Z,99799.41
2023-02-19T07:03:56.735Z,99801.60
2023-02-19T07:06:25.613Z,99809.36
2023-02-19T07:08:54.976Z,99810.55
2023-02-19T07:11:23.326Z,99814.95
2023-02-19T07:14:01.224Z,99820.05
2023-02-19T07:16:29.120Z,99827.93
2023-02-19T07:18:58.197Z,99840.73
2023-02-19T07:21:26.648Z,99846.54
2023-02-19T07:23:54.616Z,99840.14
2023-02-19T07:26:22.993Z,99840.62
2023-02-19T07:28:51.822Z,99846.40
2023-02-19T07:31:20.974Z,99856.10
2023-02-19T07:33:49.401Z,99858.60
2023-02-19T07:36:18.233Z,99870.30
2023-02-19T07:38:46.111Z,99872.52
2023-02-19T07:41:14.308Z,99876.65
2023-02-19T07:43:42.230Z,99886.11
2023-02-19T07:46:12.177Z,99889.06
2023-02-19T07:48:41.919Z,99892.60
2023-02-19T07:51:19.043Z,99892.09
2023-02-19T07:53:48.019Z,99892.41
2023-02-19T07:56:16.239Z,99900.79
2023-02-19T07:58:45.433Z,99907.42
2023-02-19T08:01:42.524Z,99911.44
2023-02-19T08:04:12.272Z,99915.83
2023-02-19T08:06:40.540Z,99920.94
2023-02-19T08:09:08.979Z,99921.77
2023-02-19T08:11:55.266Z,99926.33
2023-02-19T08:14:27.278Z,99927.10
2023-02-19T08:16:55.532Z,99924.63
2023-02-19T08:19:23.586Z,99931.45
2023-02-19T08:21:51.372Z,99939.48
2023-02-19T08:24:19.120Z,99943.06
2023-02-19T08:26:47.173Z,99941.80
2023-02-19T08:29:14.811Z,99946.68
2023-02-19T08:31:42.782Z,99949.11
2023-02-19T08:34:10.735Z,99950.49
2023-02-19T08:36:38.489Z,99949.43
2023-02-19T08:39:06.697Z,99955.70
2023-02-19T08:41:34.323Z,99961.20
2023-02-19T08:44:01.960Z,99969.58
2023-02-19T08:46:29.657Z,99975.57
2023-02-19T08:48:57.370Z,99976.06
2023-02-19T08:51:25.001Z,99980.58
2023-02-19T08:53:52.687Z,99984.08
2023-02-19T08:56:20.332Z,99986.64
2023-02-19T08:58:48.039Z,99987.23
2023-02-19T14:02:35.818Z,100337.50
2023-02-19T14:05:07.894Z,100339.02
2023-02-19T14:07:49.670Z,100343.12
2023-02-19T14:10:53.863Z,100345.62
2023-02-19T14:14:06.469Z,100346.23
2023-02-19T14:16:39.883Z,100354.31
2023-02-19T14:19:14.992Z,100359.26
2023-02-19T14:21:43.894Z,100362.98
2023-02-19T14:24:13.738Z,100365.67
2023-02-19T14:26:41.767Z,100363.02
2023-02-19T14:29:12.257Z,100373.02
2023-02-19T14:31:41.030Z,100369.63
2023-02-19T14:34:22.867Z,100368.48
2023-02-19T14:36:53.996Z,100375.05
2023-02-19T14:39:26.356Z,100376.75
2023-02-19T14:41:57.522Z,100385.80
2023-02-19T14:44:29.318Z,100390.61
2023-02-19T14:47:05.223Z,100390.36
2023-02-19T14:49:43.144Z,100388.07
2023-02-19T14:52:37.124Z,100393.88
2023-02-19T14:55:13.270Z,100387.92
2023-02-19T14:57:46.040Z,100394.66
2023-02-19T15:00:31.194Z,100392.78
2023-02-19T15:03:00.016Z,100405.23
2023-02-19T15:05:30.939Z,100404.61
2023-02-19T15:08:02.440Z,100400.67
2023-02-19T15:10:31.791Z,100411.30
2023-02-19T15:13:04.592Z,100411.34
2023-02-19T15:15:41.026Z,100410.42
2023-02-19T15:18:18.092Z,100410.98
2023-02-19T15:20:46.334Z,100411.82
2023-02-19T15:23:21.877Z,100421.98
2023-02-19T15:25:49.957Z,100419.05
2023-02-19T15:28:24.482Z,100419.65
2023-02-19T15:30:59.630Z,100430.92
2023-02-19T15:33:27.900Z,100432.23
2023-02-19T16:26:28.881Z,100502.80
2023-02-19T16:32:59.046Z,100523.42
2023-02-19T16:36:50.581Z,100533.82
2023-02-19T16:39:32.170Z,100533.29
2023-02-19T16:42:19.003Z,100534.95
2023-02-19T16:45:50.981Z,100537.38
2023-02-19T16:49:01.190Z,100547.73
2023-02-19T16:55:20.212Z,100566.27
2023-02-19T17:12:32.324Z,100587.02
2023-02-19T17:26:26.838Z,100602.84
2023-02-19T18:32:37.814Z,100694.59
2023-02-19T19:31:16.381Z,100739.29
2023-02-19T19:33:55.634Z,100742.31
2023-02-19T19:36:23.396Z,100747.04
2023-02-19T19:38:51.254Z,100744.29
2023-02-19T19:41:19.911Z,100744.89
2023-02-19T19:43:47.807Z,100745.94
2023-02-19T19:46:19.103Z,100747.20
2023-02-19T19:48:48.420Z,100752.15
2023-02-19T19:51:17.149Z,100753.34
2023-02-19T19:53:51.998Z,100756.88
2023-02-19T19:56:19.758Z,100757.94
2023-02-19T19:58:48.333Z,100757.77
2023-02-19T20:01:20.815Z,100761.27
2023-02-19T20:03:48.915Z,100766.36
2023-02-19T20:06:27.045Z,100765.64
2023-02-19T20:08:55.181Z,100763.61
2023-02-19T20:11:23.585Z,100761.80
2023-02-19T20:13:51.231Z,100758.42
2023-02-19T20:16:24.525Z,100759.11
2023-02-19T20:18:52.344Z,100764.85
2023-02-19T20:21:20.239Z,100769.48
2023-02-19T20:23:47.950Z,100770.40
2023-02-19T20:26:25.749Z,100770.43
2023-02-19T20:28:53.941Z,100773.45
2023-02-19T20:31:22.348Z,100774.32
2023-02-19T20:33:51.196Z,100772.01
2023-02-19T20:36:20.182Z,100772.58
2023-02-19T20:38:49.988Z,100778.00
2023-02-19T20:41:17.717Z,100784.16
2023-02-19T20:43:45.438Z,100785.46
2023-02-19T20:46:13.485Z,100783.95
2023-02-19T20:48:41.555Z,100782.59
2023-02-19T20:51:09.238Z,100791.48
2023-02-19T20:53:38.799Z,100800.44
2023-02-19T20:56:06.855Z,100807.79
2023-02-19T20:58:34.484Z,100809.16
2023-02-19T21:01:02.154Z,100809.23
2023-02-19T21:03:30.150Z,100815.04
2023-02-19T21:05:58.110Z,100815.83
2023-02-19T21:08:25.902Z,100817.44
2023-02-19T21:10:56.629Z,100817.33
2023-02-19T21:13:25.608Z,100822.02
2023-02-19T21:15:53.531Z,100824.60
2023-02-19T21:18:21.273Z,100827.19
2023-02-19T21:20:50.249Z,100832.73
2023-02-19T21:23:18.588Z,100832.19
2023-02-19T21:25:46.352Z,100836.77
2023-02-19T21:28:14.021Z,100839.90
2023-02-19T21:30:41.831Z,100840.48
2023-02-19T21:33:10.281Z,100841.11
2023-02-19T21:35:38.612Z,100844.41
2023-02-19T21:41:11.647Z,100843.30
2023-02-19T21:43:39.348Z,100848.39
2023-02-19T21:46:07.397Z,100846.52
2023-02-19T21:48:35.139Z,100853.89
2023-02-19T21:51:03.805Z,100859.27
2023-02-19T21:53:31.459Z,100866.75
2023-02-19T21:55:59.486Z,100874.17
2023-02-19T21:58:27.150Z,100874.92
2023-02-19T22:00:56.306Z,100873.02
2023-02-19T22:03:24.727Z,100868.60
2023-02-19T22:05:52.880Z,100874.44
2023-02-19T22:08:21.282Z,100879.69
2023-02-19T22:10:48.947Z,100882.98
2023-02-19T22:13:16.644Z,100883.52
2023-02-19T22:15:44.381Z,100887.83
2023-02-19T22:18:12.267Z,100891.66
2023-02-19T22:20:39.947Z,100885.73
2023-02-19T22:23:07.729Z,100890.19
2023-02-19T22:25:35.407Z,100894.00
2023-02-19T22:28:04.764Z,100893.45
2023-02-19T22:30:32.435Z,100890.55
2023-02-19T22:33:00.238Z,100883.58
2023-02-19T22:35:28.113Z,100880.29
2023-02-19T22:37:55.775Z,100874.96
2023-02-19T22:40:23.488Z,100871.59
2023-02-19T22:42:51.281Z,100877.20
2023-02-19T22:45:19.022Z,100881.79
2023-02-19T22:47:47.096Z,100879.88
2023-02-19T22:50:19.588Z,100882.27
2023-02-19T22:52:47.267Z,100886.01
2023-02-19T22:55:16.228Z,100883.45
2023-02-19T22:57:43.872Z,100883.52
2023-02-19T23:00:18.886Z,100880.15
2023-02-19T23:02:48.283Z,100892.65
2023-02-19T23:05:16.735Z,100891.85
2023-02-19T23:07:45.341Z,100891.55
2023-02-19T23:10:13.400Z,100887.72
2023-02-19T23:12:41.502Z,100886.14
2023-02-19T23:15:10.271Z,100880.08
2023-02-19T23:17:37.921Z,100874.20
2023-02-19T23:20:06.417Z,100870.40
2023-02-19T23:22:35.155Z,100867.55
2023-02-19T23:25:03.513Z,100862.87
2023-02-19T23:27:31.247Z,100861.31
2023-02-19T23:29:58.912Z,100861.23
2023-02-19T23:32:26.577Z,100859.73
2023-02-19T23:34:54.364Z,100854.88
2023-02-19T23:37:22.041Z,100853.70
2023-02-19T23:39:49.704Z,100852.55
2023-02-19T23:42:17.397Z,100853.05
2023-02-19T23:44:48.743Z,100847.77
2023-02-19T23:47:16.558Z,100846.61
2023-02-19T23:49:44.237Z,100846.73
2023-02-19T23:52:12.008Z,100846.56
2023-02-19T23:54:39.752Z,100844.77
2023-02-19T23:57:07.463Z,100846.45
2023-02-19T23:59:35.102Z,100848.69
